Date,TemperatureHighF,TemperatureAvgF,TemperatureLowF,DewpointHighF,DewpointAvgF,DewpointLowF,HumidityHigh,HumidityAvg,HumidityLow,PressureMaxIn,PressureMinIn,WindSpeedMaxMPH,WindSpeedAvgMPH,GustSpeedMaxMPH,PrecipitationSumIn
2013-2-1,46,41,38,46,40,35,97,91,77,29.75,29.42,10,0,10,0.09
2013-2-2,45,36,29,42,37,31,96,80,56,30.20,29.63,15,1,15,0.00
2013-2-3,49,41,31,43,37,30,94,89,85,30.20,29.83,12,-3,12,0.00
2013-2-4,50,45,37,42,37,33,93,77,60,29.88,29.61,15,-2,15,0.11
2013-2-5,42,37,33,41,33,28,95,85,65,29.62,29.27,14,2,16,0.08
2013-2-6,43,38,34,40,35,28,95,81,69,30.07,29.35,18,0,19,0.08
2013-2-7,39,35,30,40,33,27,98,90,78,30.09,29.96,12,-6,12,0.12
2013-2-8,44,37,33,45,36,31,97,92,81,30.15,30.03,14,1,14,0.00
2013-2-9,38,36,32,42,37,33,99,97,93,30.13,29.79,5,0,5,0.20
2013-2-10,40,36,32,44,38,34,100,98,96,29.79,29.22,13,-3,13,0.45
2013-2-11,34,33,32,38,35,33,98,97,94,29.68,29.26,7,0,7,0.11
2013-2-14,38,37,37,42,42,42,94,93,92,29.94,29.93,1,0,2,0.00
2013-2-15,50,40,34,46,41,36,98,87,71,30.16,29.94,7,0,8,0.01
2013-2-16,45,35,30,48,40,36,99,96,83,30.20,30.14,4,0,4,0.00
2013-2-17,47,37,31,46,42,38,99,89,63,30.16,30.06,9,0,11,0.00
2013-2-18,47,38,31,42,39,37,97,89,70,30.10,30.06,7,0,8,0.00
2013-2-19,37,28,26,39,37,35,98,97,94,30.10,30.06,1,0,1,0.01
2013-2-20,39,34,32,36,29,25,81,78,74,30.24,30.19,9,1,10,0.00
2013-2-21,34,32,31,28,26,20,80,70,63,30.23,30.17,10,1,12,0.00
2013-2-22,33,32,31,36,29,25,81,74,66,30.17,30.12,10,0,10,0.00
2013-2-23,37,33,31,35,31,28,92,83,72,30.22,30.10,8,1,8,0.00
2013-2-24,37,34,32,40,33,31,92,82,71,30.31,30.20,9,1,11,0.00
2013-2-25,38,36,32,43,36,33,96,92,83,30.42,30.29,11,1,13,0.01
2013-2-26,39,37,35,39,35,31,97,95,89,30.57,30.41,14,1,14,0.01
2013-2-27,46,38,34,40,33,29,95,88,69,30.57,30.50,9,0,10,0.00
2013-2-28,49,39,32,36,30,25,96,78,44,30.50,30.37,9,1,9,0.00